Time;durP1;ratioP1;P1;durP2;ratioP2;P2;SDS_P1;SDS_P2;PMS_P1;PMS_P2;Temp;Humidity;BMP_temperature;BMP_pressure;BME280_temperature;BME280_humidity;BME280_pressure;Samples;Min_cycle;Max_cycle;Signal;HPM_P1;HPM_P2
2021/09/06 00:00:28;;;;;;;8.98;5.80;;;;;;;;;;5105108;28;20428;-64
2021/09/06 00:02:54;;;;;;;9.68;5.53;;;;;;;;;;5108545;28;20043;-64
2021/09/06 00:05:21;;;;;;;9.23;5.57;;;;;;;;;;5097737;28;20493;-64
2021/09/06 00:07:47;;;;;;;8.43;5.95;;;;;;;;;;5100506;28;20093;-64
2021/09/06 00:10:20;;;;;;;10.13;6.30;;;;;;;;;;5112002;28;20096;-64
2021/09/06 00:12:47;;;;;;;12.10;6.25;;;;;;;;;;5082126;28;20048;-64
2021/09/06 00:15:13;;;;;;;12.35;7.18;;;;;;;;;;5087151;28;20398;-63
2021/09/06 00:17:39;;;;;;;14.48;9.77;;;;;;;;;;5091473;28;20043;-64
2021/09/06 00:20:06;;;;;;;12.02;7.63;;;;;;;;;;5076409;28;20132;-64
2021/09/06 00:22:32;;;;;;;10.23;6.38;;;;;;;;;;5101193;28;20043;-64
2021/09/06 00:24:59;;;;;;;9.85;5.45;;;;;;;;;;5107618;28;20386;-64
2021/09/06 00:27:25;;;;;;;10.77;3.75;;;;;;;;;;5090272;28;20051;-64
2021/09/06 00:29:51;;;;;;;5.57;3.08;;;;;;;;;;5106373;28;20042;-64
2021/09/06 00:32:17;;;;;;;8.55;3.20;;;;;;;;;;5105551;28;20155;-64
2021/09/06 00:34:43;;;;;;;2.70;1.70;;;;;;;;;;5107708;28;20055;-64
2021/09/06 00:37:09;;;;;;;4.13;1.70;;;;;;;;;;5089905;28;20083;-64
2021/09/06 00:39:36;;;;;;;4.55;1.70;;;;;;;;;;5100918;28;20379;-64
2021/09/06 00:42:02;;;;;;;6.43;2.05;;;;;;;;;;5108594;28;20402;-64
2021/09/06 00:44:28;;;;;;;6.00;1.85;;;;;;;;;;5099774;28;20394;-64
2021/09/06 00:46:59;;;;;;;3.70;2.17;;;;;;;;;;5109269;28;20032;-64
2021/09/06 00:49:25;;;;;;;3.83;2.20;;;;;;;;;;5104369;28;20123;-64
2021/09/06 00:51:51;;;;;;;5.55;3.22;;;;;;;;;;5101863;28;20130;-64
2021/09/06 00:54:17;;;;;;;8.55;4.57;;;;;;;;;;5088874;28;20080;-64
2021/09/06 00:56:44;;;;;;;6.15;4.00;;;;;;;;;;5089352;28;20039;-64
2021/09/06 00:59:10;;;;;;;5.40;3.75;;;;;;;;;;5082424;28;20117;-63
2021/09/06 01:01:36;;;;;;;6.07;3.72;;;;;;;;;;5087189;28;20473;-64
2021/09/06 01:04:02;;;;;;;4.30;2.60;;;;;;;;;;5083154;28;20038;-64
2021/09/06 01:06:29;;;;;;;5.45;2.60;;;;;;;;;;5102132;28;20451;-64
2021/09/06 01:08:55;;;;;;;7.40;2.00;;;;;;;;;;5095455;28;20040;-64
2021/09/06 01:11:22;;;;;;;3.97;2.70;;;;;;;;;;5085593;28;20040;-64
2021/09/06 01:13:48;;;;;;;4.88;2.33;;;;;;;;;;5101909;28;20036;-64
2021/09/06 01:16:15;;;;;;;3.95;1.98;;;;;;;;;;5107676;28;20040;-64
2021/09/06 01:18:41;;;;;;;3.78;2.10;;;;;;;;;;5104697;28;20067;-64
2021/09/06 01:21:07;;;;;;;6.03;2.50;;;;;;;;;;5087736;28;20047;-64
2021/09/06 01:23:33;;;;;;;7.15;2.40;;;;;;;;;;5107140;28;20451;-64
2021/09/06 01:25:59;;;;;;;4.35;2.60;;;;;;;;;;5106149;28;20051;-64
2021/09/06 01:28:25;;;;;;;4.10;2.03;;;;;;;;;;5103192;28;20035;-64
2021/09/06 01:30:52;;;;;;;4.30;1.63;;;;;;;;;;5103865;28;20048;-64
2021/09/06 01:33:18;;;;;;;3.40;1.85;;;;;;;;;;5087314;28;20501;-64
2021/09/06 01:35:44;;;;;;;5.75;2.05;;;;;;;;;;5089538;28;20055;-64
2021/09/06 01:38:10;;;;;;;4.85;2.83;;;;;;;;;;5080510;28;20135;-64
2021/09/06 01:40:36;;;;;;;5.35;3.13;;;;;;;;;;5084126;28;20043;-64
2021/09/06 01:43:02;;;;;;;6.45;3.20;;;;;;;;;;5103670;28;20083;-64
2021/09/06 01:45:29;;;;;;;5.82;3.78;;;;;;;;;;5105860;28;20035;-64
2021/09/06 01:47:55;;;;;;;5.55;3.45;;;;;;;;;;5108860;28;20096;-64
2021/09/06 01:50:21;;;;;;;4.72;3.03;;;;;;;;;;5089374;28;20035;-64
2021/09/06 01:52:47;;;;;;;5.55;3.33;;;;;;;;;;5102913;28;20057;-64
2021/09/06 01:55:13;;;;;;;5.03;3.30;;;;;;;;;;5106231;28;20036;-64
2021/09/06 01:57:39;;;;;;;4.22;2.63;;;;;;;;;;5086533;28;20096;-64
2021/09/06 02:00:06;;;;;;;3.97;2.25;;;;;;;;;;5081471;28;20365;-63
2021/09/06 02:02:32;;;;;;;3.97;2.38;;;;;;;;;;5088941;28;20114;-64
2021/09/06 02:04:58;;;;;;;5.57;3.35;;;;;;;;;;5097243;28;20062;-63
2021/09/06 02:07:24;;;;;;;7.20;3.20;;;;;;;;;;5103615;28;20039;-64
2021/09/06 02:09:51;;;;;;;5.05;3.13;;;;;;;;;;5105381;28;20048;-63
2021/09/06 02:12:17;;;;;;;5.38;2.88;;;;;;;;;;5078913;28;20059;-63
2021/09/06 02:14:43;;;;;;;4.45;2.90;;;;;;;;;;5096833;28;20487;-63
2021/09/06 02:17:09;;;;;;;8.05;2.60;;;;;;;;;;5092344;28;20087;-64
2021/09/06 02:19:35;;;;;;;5.13;2.00;;;;;;;;;;5084481;28;20062;-63
2021/09/06 02:22:01;;;;;;;5.47;2.00;;;;;;;;;;5109296;28;20043;-64
2021/09/06 02:24:28;;;;;;;6.60;2.00;;;;;;;;;;5082994;28;20390;-64
2021/09/06 02:26:54;;;;;;;6.30;2.50;;;;;;;;;;5084679;28;20040;-63
2021/09/06 02:29:21;;;;;;;8.38;3.28;;;;;;;;;;5070310;28;20053;-64
2021/09/06 02:31:47;;;;;;;5.07;3.30;;;;;;;;;;5084080;28;20092;-64
2021/09/06 02:34:13;;;;;;;4.60;3.10;;;;;;;;;;5081071;28;20039;-64
2021/09/06 02:36:39;;;;;;;4.47;3.28;;;;;;;;;;5079987;28;20398;-63
2021/09/06 02:39:06;;;;;;;5.65;3.17;;;;;;;;;;5080029;28;20047;-64
2021/09/06 02:41:32;;;;;;;6.90;3.33;;;;;;;;;;5100779;28;20080;-63
2021/09/06 02:43:58;;;;;;;6.93;3.53;;;;;;;;;;5095413;28;20161;-64
2021/09/06 02:46:25;;;;;;;7.10;4.00;;;;;;;;;;5100494;28;20048;-63
2021/09/06 02:48:51;;;;;;;5.07;2.55;;;;;;;;;;5082084;28;20071;-64
2021/09/06 02:51:17;;;;;;;5.00;2.40;;;;;;;;;;5101466;28;20036;-63
2021/09/06 02:53:43;;;;;;;4.32;2.63;;;;;;;;;;5081956;28;20058;-63
2021/09/06 02:56:09;;;;;;;5.88;3.30;;;;;;;;;;5088843;28;20043;-64
2021/09/06 02:58:35;;;;;;;6.75;3.20;;;;;;;;;;5080946;28;20055;-64
2021/09/06 03:01:01;;;;;;;5.35;3.20;;;;;;;;;;5107909;28;20043;-64
2021/09/06 03:03:28;;;;;;;4.22;2.50;;;;;;;;;;5102807;28;20082;-64
2021/09/06 03:05:54;;;;;;;6.75;2.72;;;;;;;;;;5097251;28;20240;-64
2021/09/06 03:08:21;;;;;;;4.47;2.95;;;;;;;;;;5104295;28;20040;-64
2021/09/06 03:10:47;;;;;;;5.88;4.63;;;;;;;;;;5063764;28;20080;-63
2021/09/06 03:13:13;;;;;;;10.00;4.78;;;;;;;;;;5091109;28;20434;-63
2021/09/06 03:15:39;;;;;;;6.15;2.90;;;;;;;;;;5085033;28;20419;-64
2021/09/06 03:18:05;;;;;;;6.72;3.10;;;;;;;;;;5101085;28;20104;-63
2021/09/06 03:20:31;;;;;;;3.85;2.65;;;;;;;;;;5104014;28;20038;-63
2021/09/06 03:22:58;;;;;;;7.32;2.90;;;;;;;;;;5104045;28;20514;-63
2021/09/06 03:25:24;;;;;;;4.50;2.80;;;;;;;;;;5098520;28;20129;-63
2021/09/06 03:27:50;;;;;;;5.78;3.15;;;;;;;;;;5089266;28;20079;-64
2021/09/06 03:30:16;;;;;;;5.90;3.28;;;;;;;;;;5098874;28;20040;-64
2021/09/06 03:32:42;;;;;;;10.35;4.68;;;;;;;;;;5109697;28;20415;-64
2021/09/06 03:35:11;;;;;;;4.40;2.83;;;;;;;;;;5086086;28;20080;-63
2021/09/06 03:37:37;;;;;;;5.90;3.40;;;;;;;;;;5066279;28;20036;-63
2021/09/06 03:40:03;;;;;;;5.90;2.58;;;;;;;;;;5082275;28;20050;-63
2021/09/06 03:42:30;;;;;;;4.05;2.33;;;;;;;;;;5109728;28;20123;-64
2021/09/06 03:44:56;;;;;;;4.95;2.03;;;;;;;;;;5085671;28;20522;-64
2021/09/06 03:47:22;;;;;;;4.38;1.98;;;;;;;;;;5091573;28;20071;-64
2021/09/06 03:49:48;;;;;;;3.45;2.05;;;;;;;;;;5102723;28;20471;-64
2021/09/06 03:52:14;;;;;;;3.42;1.80;;;;;;;;;;5085856;28;20047;-64
2021/09/06 03:54:40;;;;;;;3.10;1.75;;;;;;;;;;5107249;28;20486;-64
2021/09/06 03:57:07;;;;;;;4.63;1.90;;;;;;;;;;5106793;28;20086;-63
2021/09/06 03:59:33;;;;;;;4.35;1.70;;;;;;;;;;5083333;28;20036;-63
2021/09/06 04:01:59;;;;;;;4.03;2.00;;;;;;;;;;5089344;28;20046;-63
2021/09/06 04:04:25;;;;;;;6.63;3.80;;;;;;;;;;5101656;28;20044;-63
2021/09/06 04:06:51;;;;;;;6.43;3.42;;;;;;;;;;5101597;28;20032;-63
2021/09/06 04:09:18;;;;;;;5.53;3.00;;;;;;;;;;5109899;28;20047;-63
2021/09/06 04:11:44;;;;;;;5.38;3.47;;;;;;;;;;5089239;28;20043;-64
2021/09/06 04:14:15;;;;;;;5.28;3.45;;;;;;;;;;5099450;28;20065;-63
2021/09/06 04:16:41;;;;;;;4.68;3.42;;;;;;;;;;5113406;28;20115;-63
2021/09/06 04:19:08;;;;;;;4.80;3.33;;;;;;;;;;5084159;28;20055;-63
2021/09/06 04:21:34;;;;;;;5.05;3.13;;;;;;;;;;5110118;28;20489;-64
2021/09/06 04:24:00;;;;;;;4.60;3.00;;;;;;;;;;5101773;28;20429;-63
2021/09/06 04:26:26;;;;;;;6.00;3.50;;;;;;;;;;5105360;28;20379;-63
2021/09/06 04:28:52;;;;;;;6.40;3.22;;;;;;;;;;5093524;28;20081;-63
2021/09/06 04:31:19;;;;;;;9.30;4.20;;;;;;;;;;5078580;28;20075;-63
2021/09/06 04:33:45;;;;;;;5.30;3.80;;;;;;;;;;5090714;28;20043;-64
2021/09/06 04:36:11;;;;;;;5.43;3.05;;;;;;;;;;5083724;28;20032;-63
2021/09/06 04:38:37;;;;;;;5.13;3.08;;;;;;;;;;5085354;28;20048;-63
2021/09/06 04:41:03;;;;;;;5.68;3.40;;;;;;;;;;5087984;28;20478;-63
2021/09/06 04:43:30;;;;;;;6.78;3.05;;;;;;;;;;5108852;28;20040;-63
2021/09/06 04:45:56;;;;;;;5.78;3.50;;;;;;;;;;5100838;28;20031;-64
2021/09/06 04:48:22;;;;;;;5.43;3.30;;;;;;;;;;5100584;28;20040;-63
2021/09/06 04:50:48;;;;;;;7.78;3.63;;;;;;;;;;5108111;28;20119;-63
2021/09/06 04:53:14;;;;;;;7.60;3.38;;;;;;;;;;5084092;28;20101;-63
2021/09/06 04:55:40;;;;;;;6.40;3.90;;;;;;;;;;5110519;28;20316;-64
2021/09/06 04:58:07;;;;;;;5.82;3.33;;;;;;;;;;5086571;28;20431;-64
2021/09/06 05:00:33;;;;;;;6.50;3.33;;;;;;;;;;5108706;28;20063;-65
2021/09/06 05:02:59;;;;;;;6.72;4.25;;;;;;;;;;5100746;28;20052;-63
2021/09/06 05:05:25;;;;;;;5.63;3.75;;;;;;;;;;5101243;28;20082;-63
2021/09/06 05:07:51;;;;;;;7.85;3.65;;;;;;;;;;5081134;28;20130;-63
2021/09/06 05:10:18;;;;;;;6.10;3.50;;;;;;;;;;5077808;28;20070;-63
2021/09/06 05:12:44;;;;;;;7.47;3.55;;;;;;;;;;5078809;28;20090;-63
2021/09/06 05:15:10;;;;;;;7.80;3.90;;;;;;;;;;5082661;28;20440;-63
2021/09/06 05:17:36;;;;;;;5.53;3.88;;;;;;;;;;5077485;28;20072;-64
2021/09/06 05:20:03;;;;;;;7.82;5.55;;;;;;;;;;5079656;28;20040;-63
2021/09/06 05:22:29;;;;;;;10.07;5.22;;;;;;;;;;5084509;28;20043;-63
2021/09/06 05:24:56;;;;;;;8.15;5.95;;;;;;;;;;5097656;28;20097;-63
2021/09/06 05:27:22;;;;;;;9.10;6.50;;;;;;;;;;5096482;28;20119;-63
2021/09/06 05:29:48;;;;;;;14.80;9.23;;;;;;;;;;5096352;28;20165;-64
2021/09/06 05:32:14;;;;;;;16.27;9.35;;;;;;;;;;5096307;28;20043;-62
2021/09/06 05:34:41;;;;;;;13.52;9.38;;;;;;;;;;5075656;28;20062;-63
2021/09/06 05:37:07;;;;;;;13.30;7.35;;;;;;;;;;5077600;28;20108;-64
2021/09/06 05:39:33;;;;;;;13.48;7.28;;;;;;;;;;5096166;28;20032;-63
2021/09/06 05:41:59;;;;;;;11.60;5.70;;;;;;;;;;5078956;28;20040;-65
2021/09/06 05:44:25;;;;;;;11.00;6.75;;;;;;;;;;5097863;28;20153;-64
2021/09/06 05:46:51;;;;;;;12.32;6.93;;;;;;;;;;5079494;28;20040;-64
2021/09/06 05:49:18;;;;;;;11.35;7.05;;;;;;;;;;5081855;28;20059;-64
2021/09/06 05:51:44;;;;;;;8.95;6.60;;;;;;;;;;5082647;28;20043;-64
2021/09/06 05:54:10;;;;;;;10.75;7.50;;;;;;;;;;5096096;28;20134;-64
2021/09/06 05:56:36;;;;;;;11.82;6.68;;;;;;;;;;5097780;28;20551;-64
2021/09/06 05:59:02;;;;;;;10.18;7.63;;;;;;;;;;5097293;28;20446;-64
2021/09/06 06:01:29;;;;;;;10.00;6.50;;;;;;;;;;5096900;28;20055;-63
2021/09/06 06:03:55;;;;;;;9.25;6.50;;;;;;;;;;5069683;28;20082;-63
2021/09/06 06:06:21;;;;;;;11.65;8.13;;;;;;;;;;5101921;28;20135;-63
2021/09/06 06:08:47;;;;;;;20.73;13.73;;;;;;;;;;5100018;28;20039;-64
2021/09/06 06:11:13;;;;;;;17.63;12.40;;;;;;;;;;5100303;28;20093;-63
2021/09/06 06:13:40;;;;;;;19.58;14.00;;;;;;;;;;5096933;28;20588;-64
2021/09/06 06:16:07;;;;;;;23.95;12.98;;;;;;;;;;5099816;28;20095;-64
2021/09/06 06:18:33;;;;;;;22.83;14.07;;;;;;;;;;5101642;28;20036;-66
2021/09/06 06:21:00;;;;;;;25.98;19.23;;;;;;;;;;5083787;28;20062;-65
2021/09/06 06:23:26;;;;;;;23.23;18.50;;;;;;;;;;5103968;28;20071;-65
2021/09/06 06:25:52;;;;;;;35.03;22.17;;;;;;;;;;5097809;28;20078;-64
2021/09/06 06:28:18;;;;;;;29.80;22.20;;;;;;;;;;5081743;28;20039;-64
2021/09/06 06:30:45;;;;;;;31.42;22.88;;;;;;;;;;5096942;28;20174;-64
2021/09/06 06:33:11;;;;;;;34.75;25.35;;;;;;;;;;5099030;28;20047;-64
2021/09/06 06:35:38;;;;;;;35.60;26.75;;;;;;;;;;5099470;28;20036;-64
2021/09/06 06:38:05;;;;;;;38.40;28.77;;;;;;;;;;5100054;28;20059;-61
2021/09/06 06:40:31;;;;;;;38.45;28.25;;;;;;;;;;5103881;28;20039;-61
2021/09/06 06:42:57;;;;;;;37.80;26.85;;;;;;;;;;5102882;28;20036;-61
2021/09/06 06:45:23;;;;;;;35.58;26.42;;;;;;;;;;5100662;28;20038;-62
2021/09/06 06:47:50;;;;;;;37.97;26.92;;;;;;;;;;5102539;28;20123;-61
2021/09/06 06:50:16;;;;;;;36.90;27.23;;;;;;;;;;5098701;28;20051;-61
2021/09/06 06:52:43;;;;;;;38.22;27.25;;;;;;;;;;5098274;28;20190;-61
2021/09/06 06:55:10;;;;;;;38.33;27.38;;;;;;;;;;5098415;28;20087;-61
2021/09/06 06:57:36;;;;;;;38.70;25.60;;;;;;;;;;5099059;28;20104;-61
2021/09/06 07:00:04;;;;;;;33.65;24.83;;;;;;;;;;5100883;28;20040;-61
2021/09/06 07:02:30;;;;;;;35.55;25.85;;;;;;;;;;5093891;28;20080;-61
2021/09/06 07:04:56;;;;;;;43.15;27.08;;;;;;;;;;5102075;28;20367;-61
2021/09/06 07:07:22;;;;;;;43.25;27.75;;;;;;;;;;5104455;28;20039;-61
2021/09/06 07:09:48;;;;;;;38.42;26.85;;;;;;;;;;5096612;28;20036;-61
2021/09/06 07:12:14;;;;;;;44.78;28.15;;;;;;;;;;5089785;28;20079;-61
2021/09/06 07:14:41;;;;;;;39.03;26.33;;;;;;;;;;5088457;28;20126;-61
2021/09/06 07:17:07;;;;;;;43.85;28.38;;;;;;;;;;5113084;28;20051;-61
2021/09/06 07:19:33;;;;;;;39.75;28.88;;;;;;;;;;5091019;28;20032;-61
2021/09/06 07:21:59;;;;;;;40.83;29.52;;;;;;;;;;5087929;28;20075;-61
2021/09/06 07:24:25;;;;;;;43.40;27.88;;;;;;;;;;5093225;28;20048;-61
2021/09/06 07:26:52;;;;;;;40.95;27.25;;;;;;;;;;5110934;28;20105;-61
2021/09/06 07:29:18;;;;;;;38.90;27.13;;;;;;;;;;5079255;28;20066;-61
2021/09/06 07:31:44;;;;;;;40.47;27.63;;;;;;;;;;5090606;28;20043;-62
2021/09/06 07:34:11;;;;;;;35.90;25.52;;;;;;;;;;5108382;28;20117;-62
2021/09/06 07:36:37;;;;;;;36.88;25.45;;;;;;;;;;5082905;28;20499;-62
2021/09/06 07:39:04;;;;;;;39.08;24.63;;;;;;;;;;5063180;28;20555;-61
2021/09/06 07:41:30;;;;;;;39.28;25.98;;;;;;;;;;5102812;28;20079;-61
2021/09/06 07:43:56;;;;;;;33.40;22.92;;;;;;;;;;5099473;28;20040;-61
2021/09/06 07:46:22;;;;;;;34.10;23.25;;;;;;;;;;5104448;28;20046;-61
2021/09/06 07:48:49;;;;;;;33.30;23.92;;;;;;;;;;5088285;28;20096;-62
2021/09/06 07:51:15;;;;;;;32.88;22.88;;;;;;;;;;5075779;28;20036;-62
2021/09/06 07:53:41;;;;;;;38.13;25.05;;;;;;;;;;5085633;28;20119;-61
2021/09/06 07:56:07;;;;;;;35.42;22.02;;;;;;;;;;5098367;28;20128;-61
2021/09/06 07:58:33;;;;;;;30.95;21.27;;;;;;;;;;5101685;28;20118;-61
2021/09/06 08:01:00;;;;;;;32.05;20.98;;;;;;;;;;5084033;28;20518;-61
2021/09/06 08:03:26;;;;;;;34.05;22.33;;;;;;;;;;5085970;28;20054;-62
2021/09/06 08:05:52;;;;;;;32.95;22.70;;;;;;;;;;5094658;28;20043;-61
2021/09/06 08:08:19;;;;;;;35.47;21.42;;;;;;;;;;5096288;28;20331;-62
2021/09/06 08:10:46;;;;;;;31.75;21.30;;;;;;;;;;5102076;28;20063;-62
2021/09/06 08:13:12;;;;;;;32.20;22.10;;;;;;;;;;5098884;28;20048;-62
2021/09/06 08:15:38;;;;;;;32.95;21.85;;;;;;;;;;5083165;28;20407;-62
2021/09/06 08:18:05;;;;;;;31.08;23.83;;;;;;;;;;5080245;28;20054;-62
2021/09/06 08:20:31;;;;;;;30.85;21.20;;;;;;;;;;5102991;28;20063;-62
2021/09/06 08:22:57;;;;;;;35.28;22.63;;;;;;;;;;5085756;28;20042;-62
2021/09/06 08:25:23;;;;;;;33.65;21.95;;;;;;;;;;5085314;28;20084;-62
2021/09/06 08:27:50;;;;;;;31.13;21.05;;;;;;;;;;5102560;28;20045;-62
2021/09/06 08:30:18;;;;;;;28.73;20.75;;;;;;;;;;5080457;28;20035;-62
2021/09/06 08:32:44;;;;;;;27.13;19.83;;;;;;;;;;5068001;28;20063;-62
2021/09/06 08:35:11;;;;;;;28.13;19.50;;;;;;;;;;5086367;28;20143;-61
2021/09/06 08:37:37;;;;;;;22.92;16.48;;;;;;;;;;5080570;28;20132;-62
2021/09/06 08:40:05;;;;;;;28.30;18.90;;;;;;;;;;5102365;28;20473;-62
2021/09/06 08:42:32;;;;;;;25.63;17.65;;;;;;;;;;5085455;28;20051;-62
2021/09/06 08:44:58;;;;;;;26.38;17.23;;;;;;;;;;5099084;28;20056;-62
2021/09/06 08:47:24;;;;;;;22.80;14.95;;;;;;;;;;5080889;28;20051;-61
2021/09/06 08:49:51;;;;;;;18.67;14.38;;;;;;;;;;5099769;28;20118;-62
2021/09/06 08:52:18;;;;;;;22.55;15.23;;;;;;;;;;5080626;28;20052;-62
2021/09/06 08:54:44;;;;;;;25.30;15.35;;;;;;;;;;5081679;28;20043;-62
2021/09/06 08:57:10;;;;;;;24.40;16.98;;;;;;;;;;5094356;28;20078;-62
2021/09/06 08:59:40;;;;;;;21.65;15.27;;;;;;;;;;5098711;28;20088;-62
2021/09/06 09:02:07;;;;;;;22.83;14.90;;;;;;;;;;5099471;28;20070;-62
2021/09/06 09:04:33;;;;;;;22.17;15.70;;;;;;;;;;5081306;28;20046;-62
2021/09/06 09:07:00;;;;;;;21.23;15.85;;;;;;;;;;5075638;28;20474;-62
2021/09/06 09:09:28;;;;;;;23.67;15.05;;;;;;;;;;5085273;28;20050;-62
2021/09/06 09:12:02;;;;;;;24.35;15.00;;;;;;;;;;5101779;28;20044;-62
2021/09/06 09:14:28;;;;;;;22.25;15.20;;;;;;;;;;5105954;28;20511;-62
2021/09/06 09:16:55;;;;;;;17.90;13.23;;;;;;;;;;5085630;28;20056;-62
2021/09/06 09:19:23;;;;;;;25.15;14.38;;;;;;;;;;5094009;28;20048;-62
2021/09/06 09:21:54;;;;;;;19.88;13.38;;;;;;;;;;5081551;28;20039;-62
2021/09/06 09:24:21;;;;;;;20.55;13.00;;;;;;;;;;5096616;28;20504;-62
2021/09/06 09:26:53;;;;;;;22.92;14.75;;;;;;;;;;5085210;28;20087;-62
2021/09/06 09:29:19;;;;;;;24.08;12.65;;;;;;;;;;5097978;28;20038;-62
2021/09/06 09:31:48;;;;;;;18.05;12.38;;;;;;;;;;5100843;28;20060;-62
2021/09/06 09:34:15;;;;;;;20.00;12.95;;;;;;;;;;5098345;28;20055;-62
2021/09/06 09:36:42;;;;;;;20.23;13.50;;;;;;;;;;5076824;28;20047;-62
2021/09/06 09:39:09;;;;;;;20.20;13.07;;;;;;;;;;5095786;28;20086;-62
2021/09/06 09:41:36;;;;;;;16.73;11.27;;;;;;;;;;5080703;28;20444;-62
2021/09/06 09:44:08;;;;;;;19.77;12.48;;;;;;;;;;5094661;28;20180;-62
2021/09/06 09:46:34;;;;;;;17.08;12.10;;;;;;;;;;5087312;28;20554;-62
2021/09/06 09:49:12;;;;;;;17.90;12.15;;;;;;;;;;5083122;28;20048;-62
2021/09/06 09:51:38;;;;;;;19.30;11.18;;;;;;;;;;5103724;28;20044;-62
2021/09/06 09:54:05;;;;;;;16.35;11.05;;;;;;;;;;5103700;28;20055;-62
2021/09/06 09:56:31;;;;;;;17.67;10.80;;;;;;;;;;5100614;28;20044;-62
2021/09/06 09:58:59;;;;;;;18.13;11.10;;;;;;;;;;5084084;28;20036;-62
2021/09/06 10:01:26;;;;;;;20.77;11.73;;;;;;;;;;5101550;28;20210;-62
2021/09/06 10:03:54;;;;;;;15.38;10.07;;;;;;;;;;5098552;28;20047;-62
2021/09/06 10:06:20;;;;;;;14.48;11.02;;;;;;;;;;5101384;28;20114;-62
2021/09/06 10:08:47;;;;;;;16.88;10.55;;;;;;;;;;5086473;28;20517;-62
2021/09/06 10:11:13;;;;;;;14.82;10.80;;;;;;;;;;5102088;28;20458;-62
2021/09/06 10:13:40;;;;;;;19.50;11.88;;;;;;;;;;5085106;28;20601;-62
2021/09/06 10:16:07;;;;;;;13.55;10.60;;;;;;;;;;5107021;28;20047;-62
2021/09/06 10:18:38;;;;;;;15.13;11.93;;;;;;;;;;5088299;28;20043;-62
2021/09/06 10:21:12;;;;;;;17.00;11.20;;;;;;;;;;5104793;28;20100;-62
2021/09/06 10:23:42;;;;;;;17.95;11.77;;;;;;;;;;5099270;28;20042;-62
2021/09/06 10:26:09;;;;;;;16.55;11.43;;;;;;;;;;5103507;28;20040;-62
2021/09/06 10:28:35;;;;;;;18.35;12.27;;;;;;;;;;5104863;28;20111;-62
2021/09/06 10:31:02;;;;;;;19.05;11.75;;;;;;;;;;5082563;28;20462;-62
2021/09/06 10:33:33;;;;;;;16.23;12.10;;;;;;;;;;5103266;28;20439;-62
2021/09/06 10:36:07;;;;;;;15.85;11.15;;;;;;;;;;5081917;28;20044;-62
2021/09/06 10:38:44;;;;;;;18.88;11.82;;;;;;;;;;5098980;28;20195;-62
2021/09/06 10:41:12;;;;;;;14.40;10.13;;;;;;;;;;5098474;28;20036;-62
2021/09/06 10:43:44;;;;;;;18.90;11.38;;;;;;;;;;5060414;28;20394;-62
2021/09/06 10:46:10;;;;;;;15.70;10.90;;;;;;;;;;5099086;28;20071;-62
2021/09/06 10:48:36;;;;;;;19.15;10.98;;;;;;;;;;5090271;28;20043;-62
2021/09/06 10:51:04;;;;;;;15.20;9.27;;;;;;;;;;5106976;28;20071;-62
2021/09/06 10:53:30;;;;;;;14.48;9.93;;;;;;;;;;5104374;28;20144;-62
2021/09/06 10:55:58;;;;;;;14.05;9.38;;;;;;;;;;5088443;28;20039;-62
2021/09/06 10:58:26;;;;;;;18.05;11.02;;;;;;;;;;5100911;28;20519;-62
2021/09/06 11:00:53;;;;;;;14.80;9.63;;;;;;;;;;5082789;28;20099;-62
2021/09/06 11:03:20;;;;;;;14.68;9.40;;;;;;;;;;5097906;28;20047;-62
2021/09/06 11:05:55;;;;;;;15.85;9.65;;;;;;;;;;5103940;28;20044;-62
2021/09/06 11:08:24;;;;;;;16.90;10.65;;;;;;;;;;5097306;28;20028;-62
2021/09/06 11:10:50;;;;;;;15.15;9.10;;;;;;;;;;5104444;28;20067;-62
2021/09/06 11:13:16;;;;;;;15.20;8.85;;;;;;;;;;5064519;28;20043;-62
2021/09/06 11:15:43;;;;;;;14.40;9.52;;;;;;;;;;5100448;28;20096;-62
2021/09/06 11:18:09;;;;;;;14.05;9.95;;;;;;;;;;5100602;28;20433;-62
2021/09/06 11:20:36;;;;;;;15.57;9.65;;;;;;;;;;5103936;28;20043;-62
2021/09/06 11:23:03;;;;;;;12.68;8.57;;;;;;;;;;5097716;28;20063;-63
2021/09/06 11:25:31;;;;;;;16.48;10.20;;;;;;;;;;5104381;28;20051;-62
2021/09/06 11:28:05;;;;;;;14.82;9.80;;;;;;;;;;5102295;27;20416;-62
2021/09/06 11:30:33;;;;;;;15.60;10.48;;;;;;;;;;5101446;28;20052;-62
2021/09/06 11:33:02;;;;;;;14.45;9.38;;;;;;;;;;5099043;28;20071;-62
2021/09/06 11:35:28;;;;;;;14.13;10.20;;;;;;;;;;5102633;28;20052;-62
2021/09/06 11:37:57;;;;;;;15.40;10.32;;;;;;;;;;5085236;28;20145;-62
2021/09/06 11:40:23;;;;;;;20.42;10.52;;;;;;;;;;5099473;28;20110;-62
2021/09/06 11:42:49;;;;;;;13.60;9.65;;;;;;;;;;5102386;28;20138;-63
2021/09/06 11:45:18;;;;;;;13.13;9.05;;;;;;;;;;5084397;28;20043;-63
2021/09/06 11:47:45;;;;;;;12.05;8.98;;;;;;;;;;5083569;28;20128;-63
2021/09/06 11:50:12;;;;;;;14.18;9.13;;;;;;;;;;5100978;28;20108;-63
2021/09/06 11:52:39;;;;;;;14.68;9.80;;;;;;;;;;5101775;28;20126;-63
2021/09/06 11:55:16;;;;;;;11.60;8.57;;;;;;;;;;5103099;28;20154;-63
2021/09/06 11:57:44;;;;;;;11.75;8.32;;;;;;;;;;5085074;28;20429;-63
2021/09/06 12:00:11;;;;;;;14.32;9.57;;;;;;;;;;5100970;28;20122;-62
2021/09/06 12:02:48;;;;;;;14.65;9.60;;;;;;;;;;5102219;28;20089;-62
2021/09/06 12:05:15;;;;;;;14.52;10.15;;;;;;;;;;5082760;28;20055;-62
2021/09/06 12:07:50;;;;;;;14.80;10.52;;;;;;;;;;5103397;28;20079;-62
2021/09/06 12:10:24;;;;;;;13.73;10.20;;;;;;;;;;5082109;28;20454;-63
2021/09/06 12:12:58;;;;;;;18.52;10.30;;;;;;;;;;5099931;28;20124;-63
2021/09/06 12:15:25;;;;;;;13.98;9.23;;;;;;;;;;5099254;28;20048;-63
2021/09/06 12:17:51;;;;;;;13.15;9.70;;;;;;;;;;5080851;28;20059;-62
2021/09/06 12:20:18;;;;;;;17.08;9.32;;;;;;;;;;5083323;28;20032;-63
2021/09/06 12:22:53;;;;;;;14.05;9.63;;;;;;;;;;5101200;28;20043;-62
2021/09/06 12:25:24;;;;;;;22.17;13.13;;;;;;;;;;5101071;28;20443;-63
2021/09/06 12:27:50;;;;;;;13.60;9.50;;;;;;;;;;5084832;28;20552;-62
2021/09/06 12:30:16;;;;;;;15.50;9.80;;;;;;;;;;5078405;28;20075;-62
2021/09/06 12:32:43;;;;;;;12.32;8.63;;;;;;;;;;5103010;28;20055;-63
2021/09/06 12:35:10;;;;;;;12.82;8.20;;;;;;;;;;5085588;28;20047;-63
2021/09/06 12:37:36;;;;;;;12.25;8.38;;;;;;;;;;5103251;28;20093;-61
2021/09/06 12:40:03;;;;;;;14.02;9.68;;;;;;;;;;5097782;28;20035;-62
2021/09/06 12:42:29;;;;;;;14.90;9.27;;;;;;;;;;5096800;28;20044;-62
2021/09/06 12:44:56;;;;;;;16.48;11.00;;;;;;;;;;5081596;28;20048;-62
2021/09/06 12:47:22;;;;;;;16.20;10.05;;;;;;;;;;5093220;28;20043;-62
2021/09/06 12:49:48;;;;;;;16.42;9.50;;;;;;;;;;5096047;28;20070;-62
2021/09/06 12:52:14;;;;;;;13.02;8.88;;;;;;;;;;5093293;28;20047;-63
2021/09/06 12:54:40;;;;;;;16.88;9.70;;;;;;;;;;5094851;28;20055;-63
2021/09/06 12:57:07;;;;;;;16.92;8.77;;;;;;;;;;5095447;28;20060;-63
2021/09/06 12:59:33;;;;;;;11.60;7.72;;;;;;;;;;5077627;28;20048;-62
2021/09/06 13:02:00;;;;;;;15.15;9.00;;;;;;;;;;5093356;28;20055;-62
2021/09/06 13:04:26;;;;;;;12.57;8.65;;;;;;;;;;5075925;28;20052;-62
2021/09/06 13:06:52;;;;;;;12.25;8.18;;;;;;;;;;5077357;28;20048;-62
2021/09/06 13:09:18;;;;;;;12.07;7.95;;;;;;;;;;5095670;28;20127;-62
2021/09/06 13:11:44;;;;;;;13.52;7.78;;;;;;;;;;5079810;28;20348;-63
2021/09/06 13:14:11;;;;;;;11.18;7.50;;;;;;;;;;5075255;28;20113;-62
2021/09/06 13:16:37;;;;;;;12.82;8.75;;;;;;;;;;5099295;28;20383;-63
2021/09/06 13:19:04;;;;;;;12.32;8.23;;;;;;;;;;5081075;28;20064;-63
2021/09/06 13:21:30;;;;;;;13.30;8.73;;;;;;;;;;5084279;28;20138;-63
2021/09/06 13:23:56;;;;;;;13.07;8.52;;;;;;;;;;5079898;28;20078;-63
2021/09/06 13:26:22;;;;;;;13.02;9.52;;;;;;;;;;5086487;28;20548;-63
2021/09/06 13:28:49;;;;;;;14.65;8.93;;;;;;;;;;5079656;28;20065;-63
2021/09/06 13:31:15;;;;;;;12.65;9.15;;;;;;;;;;5106678;28;20307;-63
2021/09/06 13:33:41;;;;;;;11.55;8.18;;;;;;;;;;5088427;28;20547;-70
2021/09/06 13:36:08;;;;;;;13.23;9.00;;;;;;;;;;5103122;28;20051;-63
2021/09/06 13:38:34;;;;;;;12.10;7.85;;;;;;;;;;5103262;28;20134;-63
2021/09/06 13:41:01;;;;;;;11.73;8.02;;;;;;;;;;5087885;28;20090;-63
2021/09/06 13:43:27;;;;;;;13.35;7.95;;;;;;;;;;5100495;28;20031;-63
2021/09/06 13:45:55;;;;;;;11.43;7.20;;;;;;;;;;5090919;28;20490;-63
2021/09/06 13:48:21;;;;;;;12.00;8.38;;;;;;;;;;5107433;28;20040;-63
2021/09/06 13:50:47;;;;;;;12.18;9.00;;;;;;;;;;5108851;28;20134;-63
2021/09/06 13:53:13;;;;;;;13.63;8.13;;;;;;;;;;5105355;28;20102;-63
2021/09/06 13:55:41;;;;;;;12.25;7.70;;;;;;;;;;5100375;28;20051;-63
2021/09/06 13:58:07;;;;;;;13.55;8.05;;;;;;;;;;5088286;28;20051;-63
2021/09/06 14:00:33;;;;;;;12.00;8.15;;;;;;;;;;5105543;28;20040;-63
2021/09/06 14:03:00;;;;;;;14.30;8.70;;;;;;;;;;5105713;28;20047;-63
2021/09/06 14:05:26;;;;;;;11.95;7.18;;;;;;;;;;5085769;28;20470;-62
2021/09/06 14:07:52;;;;;;;11.25;7.88;;;;;;;;;;5106901;28;20034;-62
2021/09/06 14:10:18;;;;;;;10.13;7.60;;;;;;;;;;5086732;28;20399;-63
2021/09/06 14:12:44;;;;;;;11.43;6.20;;;;;;;;;;5109284;28;20503;-63
2021/09/06 14:15:11;;;;;;;11.10;6.82;;;;;;;;;;5105428;28;20058;-63
2021/09/06 14:17:37;;;;;;;12.05;7.28;;;;;;;;;;5089337;28;20147;-63
2021/09/06 14:20:03;;;;;;;10.32;7.07;;;;;;;;;;5089941;28;20099;-62
2021/09/06 14:22:29;;;;;;;11.40;7.45;;;;;;;;;;5089043;28;20462;-62
2021/09/06 14:24:56;;;;;;;10.25;7.30;;;;;;;;;;5101237;28;20028;-63
2021/09/06 14:27:22;;;;;;;11.55;7.38;;;;;;;;;;5103324;28;20086;-63